PUY weather

Pula Airport
Pula, Istria County, Croatia

Public forecast

Using degrees Celsius for public forecast. Weather courtesy of forecast.io.

METAR (pilot weather report)

Retrieved 2019/05/22 10:30 UTC (0 seconds ago):

LDPL 221030Z 10006KT 070V210 9999 SCT020 19/14 Q1015 TEMPO 27010KT

TAF (pilot weather forecast)

Retrieved 2019/05/22 06:27 UTC (4 hours ago):

TAF LDPL 220525Z 2206/2306 18006KT 9999 BKN040 TX18/2214Z TN13/2304Z PROB40 TEMPO 2206/2210 RA PROB30 TEMPO 2206/2209 TSRA BKN010 FEW020CB BKN030 TEMPO 2206/2211 27010KT